Terminal Aerodrome Forecast
Issued by NWS

Home | Current Version | Previous Version | Text Only | Print | Product List | Glossary On
Versions: 1 2 3 4 5 6 7 8 9 10 11 12 13 14 15 16 17
000
FTUS43 KAPX 061740
TAFPLN
TAF
KPLN 061740Z 0618/0718 22012G22KT P6SM BKN100
     FM062300 21011KT P6SM BKN028 OVC070
     FM070200 22010KT 6SM -SN OVC015
     FM070500 26005KT P6SM BKN030
     FM071400 23008KT 5SM -SN OVC022=

USA.gov is the U.S. government's official web portal to all federal, state and local government web resources and services.